Time;durP1;ratioP1;P1;durP2;ratioP2;P2;SDS_P1;SDS_P2;PMS_P1;PMS_P2;Temp;Humidity;BMP_temperature;BMP_pressure;BME280_temperature;BME280_humidity;BME280_pressure;Samples;Min_cycle;Max_cycle;Signal;HPM_P1;HPM_P2
2023/10/28 00:02:20;;;;;;;;;;;11.10;99.90;;;;;;5036900;28;19966;-75
2023/10/28 00:04:45;;;;;;;;;;;11.10;99.90;;;;;;5036918;28;20283;-75
2023/10/28 00:07:11;;;;;;;;;;;11.00;99.90;;;;;;5034542;28;20490;-74
2023/10/28 00:09:37;;;;;;;;;;;11.10;99.90;;;;;;5036143;28;19931;-75
2023/10/28 00:12:02;;;;;;;;;;;11.10;99.90;;;;;;5035846;28;19913;-73
2023/10/28 00:14:28;;;;;;;;;;;11.00;99.90;;;;;;5039346;28;19978;-75
2023/10/28 00:16:53;;;;;;;;;;;10.90;99.90;;;;;;5031649;28;20106;-75
2023/10/28 00:19:20;;;;;;;;;;;10.90;99.90;;;;;;5038243;28;19956;-71
2023/10/28 00:21:45;;;;;;;;;;;10.90;99.90;;;;;;5034884;28;20329;-71
2023/10/28 00:24:11;;;;;;;;;;;10.90;99.90;;;;;;5038699;28;20022;-70
2023/10/28 00:26:37;;;;;;;;;;;10.80;99.90;;;;;;5037120;28;20286;-71
2023/10/28 00:29:02;;;;;;;;;;;10.80;99.90;;;;;;5036558;28;19913;-71
2023/10/28 00:31:29;;;;;;;;;;;10.90;99.90;;;;;;5037146;28;19912;-71
2023/10/28 00:33:54;;;;;;;;;;;10.90;99.90;;;;;;5032052;28;20192;-71
2023/10/28 00:36:20;;;;;;;;;;;10.90;99.90;;;;;;5037198;28;19916;-72
2023/10/28 00:38:47;;;;;;;;;;;11.00;99.90;;;;;;5036078;28;19913;-72
2023/10/28 00:41:16;;;;;;;;;;;11.00;99.90;;;;;;5037143;28;19999;-71
2023/10/28 00:43:42;;;;;;;;;;;11.10;99.90;;;;;;5033862;28;20296;-70
2023/10/28 00:46:08;;;;;;;;;;;11.20;99.90;;;;;;5038698;28;19913;-71
2023/10/28 00:48:34;;;;;;;;;;;11.20;99.90;;;;;;5045488;28;19912;-70
2023/10/28 00:51:00;;;;;;;;;;;11.30;99.90;;;;;;5042175;28;20364;-71
2023/10/28 00:53:27;;;;;;;;;;;11.30;99.90;;;;;;5038979;28;19913;-70
2023/10/28 00:55:54;;;;;;;;;;;11.30;99.90;;;;;;5038283;28;20290;-70
2023/10/28 00:58:21;;;;;;;;;;;11.30;99.90;;;;;;5041351;28;19920;-72
2023/10/28 01:00:48;;;;;;;;;;;11.30;99.90;;;;;;5040828;28;19908;-70
2023/10/28 01:03:14;;;;;;;;;;;11.30;99.90;;;;;;5037456;28;19912;-71
2023/10/28 01:05:40;;;;;;;;;;;11.40;99.90;;;;;;5040300;28;19913;-68
2023/10/28 01:08:06;;;;;;;;;;;11.50;99.90;;;;;;5036928;28;19995;-71
2023/10/28 01:10:33;;;;;;;;;;;11.60;99.90;;;;;;5041424;28;20004;-71
2023/10/28 01:12:59;;;;;;;;;;;11.60;99.90;;;;;;5041211;28;19909;-70
2023/10/28 01:15:26;;;;;;;;;;;11.50;99.90;;;;;;5037626;28;19913;-71
2023/10/28 01:17:52;;;;;;;;;;;11.50;99.90;;;;;;5041716;28;19952;-71
2023/10/28 01:20:17;;;;;;;;;;;11.50;99.90;;;;;;5041366;28;19952;-71
2023/10/28 01:22:43;;;;;;;;;;;11.30;99.90;;;;;;5039689;28;20360;-70
2023/10/28 01:25:09;;;;;;;;;;;11.10;99.90;;;;;;5040630;28;19947;-71
2023/10/28 01:27:36;;;;;;;;;;;11.00;99.90;;;;;;5036640;28;19970;-72
2023/10/28 01:30:03;;;;;;;;;;;10.80;99.90;;;;;;5042672;28;19909;-71
2023/10/28 01:32:28;;;;;;;;;;;10.70;99.90;;;;;;5038664;28;19969;-70
2023/10/28 01:34:55;;;;;;;;;;;10.60;99.90;;;;;;5037772;28;19921;-71
2023/10/28 01:37:21;;;;;;;;;;;10.70;99.90;;;;;;5039182;28;19916;-71
2023/10/28 01:39:48;;;;;;;;;;;10.70;99.90;;;;;;5035887;28;19915;-71
2023/10/28 01:42:14;;;;;;;;;;;10.60;99.90;;;;;;5037985;28;19959;-71
2023/10/28 01:44:40;;;;;;;;;;;10.60;99.90;;;;;;5038718;28;20438;-71
2023/10/28 01:47:08;;;;;;;;;;;10.50;99.90;;;;;;5040930;28;19963;-71
2023/10/28 01:49:37;;;;;;;;;;;10.60;99.90;;;;;;5042203;28;19909;-71
2023/10/28 01:52:03;;;;;;;;;;;10.50;99.90;;;;;;5040710;28;19913;-70
2023/10/28 01:54:29;;;;;;;;;;;10.50;99.90;;;;;;5039759;28;19917;-72
2023/10/28 01:56:57;;;;;;;;;;;10.40;99.90;;;;;;5038961;28;20450;-71
2023/10/28 01:59:24;;;;;;;;;;;10.40;99.90;;;;;;5041248;28;20543;-71
2023/10/28 02:01:50;;;;;;;;;;;10.40;99.90;;;;;;5036794;28;21480;-71
2023/10/28 02:04:15;;;;;;;;;;;10.30;99.90;;;;;;5039725;28;20999;-71
2023/10/28 02:06:41;;;;;;;;;;;10.30;99.90;;;;;;5040109;28;19915;-71
2023/10/28 02:09:08;;;;;;;;;;;10.30;99.90;;;;;;5038860;28;19920;-71
2023/10/28 02:11:38;;;;;;;;;;;10.20;99.90;;;;;;5038004;28;19932;-72
2023/10/28 02:14:04;;;;;;;;;;;10.20;99.90;;;;;;5038316;28;19928;-71
2023/10/28 02:16:29;;;;;;;;;;;10.20;99.90;;;;;;5038507;28;19913;-71
2023/10/28 02:18:55;;;;;;;;;;;10.30;99.90;;;;;;5039899;28;19909;-71
2023/10/28 02:21:21;;;;;;;;;;;10.30;99.90;;;;;;5036470;28;19924;-71
2023/10/28 02:23:47;;;;;;;;;;;10.30;99.90;;;;;;5039206;28;19909;-71
2023/10/28 02:26:12;;;;;;;;;;;10.30;99.90;;;;;;5035389;28;19920;-70
2023/10/28 02:28:39;;;;;;;;;;;10.30;99.90;;;;;;5039718;28;20506;-71
2023/10/28 02:31:08;;;;;;;;;;;10.30;99.90;;;;;;5036928;28;19948;-72
2023/10/28 02:33:33;;;;;;;;;;;10.30;99.90;;;;;;5039463;28;19990;-71
2023/10/28 02:36:03;;;;;;;;;;;10.30;99.90;;;;;;5039563;28;19913;-71
2023/10/28 02:38:29;;;;;;;;;;;10.30;99.90;;;;;;5037836;28;19948;-71
2023/10/28 02:40:54;;;;;;;;;;;10.30;99.90;;;;;;5039424;28;20031;-72
2023/10/28 02:43:21;;;;;;;;;;;10.20;99.90;;;;;;5035525;28;19921;-70
2023/10/28 02:45:46;;;;;;;;;;;10.20;99.90;;;;;;5039055;28;20360;-71
2023/10/28 02:48:12;;;;;;;;;;;10.30;99.90;;;;;;5039366;28;19991;-71
2023/10/28 02:50:37;;;;;;;;;;;10.30;99.90;;;;;;5035704;28;19963;-71
2023/10/28 02:53:03;;;;;;;;;;;10.30;99.90;;;;;;5037735;28;19909;-71
2023/10/28 02:55:29;;;;;;;;;;;10.20;99.90;;;;;;5037740;28;19996;-70
2023/10/28 02:57:54;;;;;;;;;;;10.20;99.90;;;;;;5038516;28;19920;-71
2023/10/28 03:00:20;;;;;;;;;;;10.10;99.90;;;;;;5034533;28;19917;-71
2023/10/28 03:02:45;;;;;;;;;;;10.10;99.90;;;;;;5042411;28;20044;-71
2023/10/28 03:05:11;;;;;;;;;;;10.00;99.90;;;;;;5038578;28;19913;-72
2023/10/28 03:07:38;;;;;;;;;;;10.00;99.90;;;;;;5038530;28;19916;-71
2023/10/28 03:10:04;;;;;;;;;;;9.90;99.90;;;;;;5037944;28;19923;-71
2023/10/28 03:12:31;;;;;;;;;;;9.80;99.90;;;;;;5038037;28;19912;-71
2023/10/28 03:14:56;;;;;;;;;;;9.80;99.90;;;;;;5037632;28;20401;-71
2023/10/28 03:17:22;;;;;;;;;;;9.80;99.90;;;;;;5038708;28;19917;-71
2023/10/28 03:19:48;;;;;;;;;;;9.80;99.90;;;;;;5037188;28;20022;-71
2023/10/28 03:22:13;;;;;;;;;;;9.80;99.90;;;;;;5034925;28;19923;-72
2023/10/28 03:24:40;;;;;;;;;;;9.70;99.90;;;;;;5041773;28;19912;-71
2023/10/28 03:27:05;;;;;;;;;;;9.70;99.90;;;;;;5038547;28;20364;-71
2023/10/28 03:29:31;;;;;;;;;;;9.70;99.90;;;;;;5038350;28;19970;-71
2023/10/28 03:31:57;;;;;;;;;;;9.70;99.90;;;;;;5034667;28;20335;-71
2023/10/28 03:34:22;;;;;;;;;;;9.70;99.90;;;;;;5037907;28;19916;-71
2023/10/28 03:36:48;;;;;;;;;;;9.60;99.90;;;;;;5037481;28;19913;-71
2023/10/28 03:39:15;;;;;;;;;;;9.60;99.90;;;;;;5038719;28;19917;-71
2023/10/28 03:41:40;;;;;;;;;;;9.60;99.90;;;;;;5038958;28;19908;-72
2023/10/28 03:44:06;;;;;;;;;;;9.70;99.90;;;;;;5032970;28;20284;-70
2023/10/28 03:46:31;;;;;;;;;;;9.70;99.90;;;;;;5038351;28;19913;-71
2023/10/28 03:48:58;;;;;;;;;;;9.70;99.90;;;;;;5035275;28;19923;-72
2023/10/28 03:51:24;;;;;;;;;;;9.80;99.90;;;;;;5038856;28;19919;-72
2023/10/28 03:53:49;;;;;;;;;;;9.80;99.90;;;;;;5039007;28;19921;-71
2023/10/28 03:56:16;;;;;;;;;;;9.80;99.90;;;;;;5036972;28;20445;-71
2023/10/28 03:58:41;;;;;;;;;;;9.90;99.90;;;;;;5037225;28;20260;-70
2023/10/28 04:01:07;;;;;;;;;;;9.90;99.90;;;;;;5034362;28;19909;-71
2023/10/28 04:03:33;;;;;;;;;;;9.90;99.90;;;;;;5037977;28;20465;-71
2023/10/28 04:06:00;;;;;;;;;;;9.90;99.90;;;;;;5038142;28;20013;-72
2023/10/28 04:08:25;;;;;;;;;;;9.80;99.90;;;;;;5037430;28;19951;-71
2023/10/28 04:10:51;;;;;;;;;;;9.80;99.90;;;;;;5035142;28;19956;-72
2023/10/28 04:13:16;;;;;;;;;;;9.80;99.90;;;;;;5038239;28;19935;-71
2023/10/28 04:15:42;;;;;;;;;;;9.80;99.90;;;;;;5040007;28;19920;-71
2023/10/28 04:18:08;;;;;;;;;;;9.80;99.90;;;;;;5034358;28;20295;-70
2023/10/28 04:20:34;;;;;;;;;;;9.80;99.90;;;;;;5037510;28;20003;-72
2023/10/28 04:23:00;;;;;;;;;;;9.90;99.90;;;;;;5041146;28;20382;-71
2023/10/28 04:25:27;;;;;;;;;;;10.00;99.90;;;;;;5071222;28;19925;-71
2023/10/28 04:27:52;;;;;;;;;;;10.10;99.90;;;;;;5042409;28;19916;-71
2023/10/28 04:30:18;;;;;;;;;;;10.30;99.90;;;;;;5040772;28;19909;-71
2023/10/28 04:32:44;;;;;;;;;;;10.40;99.90;;;;;;5041234;28;20571;-72
2023/10/28 04:35:10;;;;;;;;;;;10.60;99.90;;;;;;5041483;28;20000;-71
2023/10/28 04:37:36;;;;;;;;;;;10.70;99.90;;;;;;5040335;28;19909;-71
2023/10/28 04:40:03;;;;;;;;;;;10.80;99.90;;;;;;5042967;28;20337;-71
2023/10/28 04:42:29;;;;;;;;;;;10.90;99.90;;;;;;5041332;28;19962;-72
2023/10/28 04:44:54;;;;;;;;;;;11.00;99.90;;;;;;5040161;28;19913;-72
2023/10/28 04:47:20;;;;;;;;;;;11.10;99.90;;;;;;5037786;28;20015;-71
2023/10/28 04:49:45;;;;;;;;;;;11.10;99.90;;;;;;5041513;28;19913;-73
2023/10/28 04:52:11;;;;;;;;;;;11.10;99.90;;;;;;5040507;28;19915;-71
2023/10/28 04:54:38;;;;;;;;;;;11.20;99.90;;;;;;5041611;28;19996;-71
2023/10/28 04:57:04;;;;;;;;;;;11.30;99.90;;;;;;5041000;28;19937;-71
2023/10/28 04:59:29;;;;;;;;;;;11.40;99.90;;;;;;5038387;28;19944;-70
2023/10/28 05:01:55;;;;;;;;;;;11.40;99.90;;;;;;5040488;28;19913;-71
2023/10/28 05:04:23;;;;;;;;;;;11.60;99.90;;;;;;5036186;28;19975;-72
2023/10/28 05:06:49;;;;;;;;;;;11.70;99.90;;;;;;5042908;28;19913;-72
2023/10/28 05:09:15;;;;;;;;;;;11.60;99.90;;;;;;5040885;28;20438;-73
2023/10/28 05:11:41;;;;;;;;;;;11.70;99.90;;;;;;5041501;28;19909;-71
2023/10/28 05:14:09;;;;;;;;;;;11.70;99.90;;;;;;5041022;28;19913;-72
2023/10/28 05:16:35;;;;;;;;;;;11.60;99.90;;;;;;5041425;28;19909;-71
2023/10/28 05:19:00;;;;;;;;;;;11.60;99.90;;;;;;5043214;28;19909;-72
2023/10/28 05:21:27;;;;;;;;;;;11.60;99.90;;;;;;5038803;28;20000;-71
2023/10/28 05:23:52;;;;;;;;;;;11.60;99.90;;;;;;5042985;28;19944;-71
2023/10/28 05:26:18;;;;;;;;;;;11.60;99.90;;;;;;5038986;28;19952;-70
2023/10/28 05:28:46;;;;;;;;;;;11.50;99.90;;;;;;5040401;28;20009;-71
2023/10/28 05:31:12;;;;;;;;;;;11.50;99.90;;;;;;5039997;28;19963;-72
2023/10/28 05:33:39;;;;;;;;;;;11.60;99.90;;;;;;5034486;28;19948;-71
2023/10/28 05:36:05;;;;;;;;;;;11.60;99.90;;;;;;5042344;28;19909;-70
2023/10/28 05:38:31;;;;;;;;;;;11.60;99.90;;;;;;5041564;28;19917;-71
2023/10/28 05:40:57;;;;;;;;;;;11.60;99.90;;;;;;5042914;28;20442;-71
2023/10/28 05:43:23;;;;;;;;;;;11.60;99.90;;;;;;5040916;28;19908;-71
2023/10/28 05:45:48;;;;;;;;;;;11.60;99.90;;;;;;5040164;28;20654;-72
2023/10/28 05:48:14;;;;;;;;;;;11.60;99.90;;;;;;5043243;28;20370;-71
2023/10/28 05:50:39;;;;;;;;;;;11.60;99.90;;;;;;5044062;28;19949;-71
2023/10/28 05:53:05;;;;;;;;;;;11.60;99.90;;;;;;5041376;28;19909;-71
2023/10/28 05:55:31;;;;;;;;;;;11.70;99.90;;;;;;5042522;28;20335;-72
2023/10/28 05:57:58;;;;;;;;;;;11.70;99.90;;;;;;5036429;28;19913;-72
2023/10/28 06:00:24;;;;;;;;;;;11.70;99.90;;;;;;5039728;28;20011;-72
2023/10/28 06:02:49;;;;;;;;;;;11.80;99.90;;;;;;5038260;28;19999;-72
2023/10/28 06:05:15;;;;;;;;;;;11.80;99.90;;;;;;5041293;28;19909;-71
2023/10/28 06:07:47;;;;;;;;;;;11.80;99.90;;;;;;5040385;28;19974;-72
2023/10/28 06:10:13;;;;;;;;;;;11.90;99.90;;;;;;5039099;28;19916;-72
2023/10/28 06:12:38;;;;;;;;;;;11.90;99.90;;;;;;5039338;28;19916;-71
2023/10/28 06:15:04;;;;;;;;;;;12.00;99.90;;;;;;5040544;28;19974;-71
2023/10/28 06:17:29;;;;;;;;;;;12.00;99.90;;;;;;5041000;28;20453;-72
2023/10/28 06:19:55;;;;;;;;;;;12.20;99.90;;;;;;5070030;28;19913;-72
2023/10/28 06:22:21;;;;;;;;;;;12.30;99.90;;;;;;5039919;28;19917;-72
2023/10/28 06:24:49;;;;;;;;;;;12.40;99.90;;;;;;5037133;28;19909;-72
2023/10/28 06:27:14;;;;;;;;;;;12.50;99.90;;;;;;5043637;28;21299;-72
2023/10/28 06:29:40;;;;;;;;;;;12.60;99.90;;;;;;5036130;28;19916;-72
2023/10/28 06:32:09;;;;;;;;;;;12.70;99.90;;;;;;5041258;28;19915;-72
2023/10/28 06:34:35;;;;;;;;;;;12.70;99.90;;;;;;5040464;28;19982;-72
2023/10/28 06:37:01;;;;;;;;;;;12.80;99.90;;;;;;5042910;28;19909;-71
2023/10/28 06:39:26;;;;;;;;;;;12.80;99.90;;;;;;5075198;28;19916;-72
2023/10/28 06:41:52;;;;;;;;;;;12.90;99.90;;;;;;5037031;28;19908;-71
2023/10/28 06:44:19;;;;;;;;;;;13.00;99.90;;;;;;5042142;28;19917;-72
2023/10/28 06:46:46;;;;;;;;;;;13.10;99.90;;;;;;5040191;28;19916;-73
2023/10/28 06:49:12;;;;;;;;;;;13.20;99.90;;;;;;5039325;28;20584;-72
2023/10/28 06:51:37;;;;;;;;;;;13.20;99.90;;;;;;5038426;28;20007;-71
2023/10/28 06:54:04;;;;;;;;;;;13.30;99.90;;;;;;5035417;28;20429;-71
2023/10/28 06:56:30;;;;;;;;;;;13.40;99.90;;;;;;5039820;28;19932;-71
2023/10/28 06:58:55;;;;;;;;;;;13.30;99.90;;;;;;5034497;28;20383;-72
2023/10/28 07:01:21;;;;;;;;;;;13.40;99.90;;;;;;5039913;28;19921;-71
2023/10/28 07:03:47;;;;;;;;;;;13.50;99.90;;;;;;5038868;28;19913;-71
2023/10/28 07:06:16;;;;;;;;;;;13.60;99.90;;;;;;5042831;28;19931;-72
2023/10/28 07:08:42;;;;;;;;;;;13.70;99.90;;;;;;5040626;28;19917;-72
2023/10/28 07:11:07;;;;;;;;;;;13.80;99.90;;;;;;5039081;28;19915;-71
2023/10/28 07:13:33;;;;;;;;;;;13.90;99.90;;;;;;5044027;28;19913;-71
2023/10/28 07:15:59;;;;;;;;;;;13.90;99.90;;;;;;5045937;28;19916;-71
2023/10/28 07:18:26;;;;;;;;;;;14.00;99.90;;;;;;5046639;28;19913;-73
2023/10/28 07:20:51;;;;;;;;;;;14.10;99.90;;;;;;5044044;28;19966;-73
2023/10/28 07:23:20;;;;;;;;;;;14.00;99.90;;;;;;5038746;28;19909;-72
2023/10/28 07:25:45;;;;;;;;;;;14.10;99.90;;;;;;5036479;28;19924;-72
2023/10/28 07:28:13;;;;;;;;;;;14.10;99.90;;;;;;5035712;28;20260;-72
2023/10/28 07:30:48;;;;;;;;;;;14.10;99.90;;;;;;5040095;28;19913;-73
2023/10/28 07:33:15;;;;;;;;;;;14.00;99.90;;;;;;5038963;28;21334;-72
2023/10/28 07:35:47;;;;;;;;;;;14.10;99.90;;;;;;5039855;28;19916;-73
2023/10/28 07:38:13;;;;;;;;;;;14.10;99.90;;;;;;5037445;28;19920;-73
2023/10/28 07:40:42;;;;;;;;;;;14.10;99.90;;;;;;5040347;28;19913;-72
2023/10/28 07:43:13;;;;;;;;;;;14.00;99.90;;;;;;5036730;28;20368;-74
2023/10/28 07:45:42;;;;;;;;;;;14.00;99.90;;;;;;5040039;28;20298;-73
2023/10/28 07:48:11;;;;;;;;;;;14.10;99.90;;;;;;5039449;28;20361;-73
2023/10/28 07:50:37;;;;;;;;;;;14.00;99.90;;;;;;5036878;28;20289;-72
2023/10/28 07:53:06;;;;;;;;;;;14.00;99.90;;;;;;5038614;28;19923;-71
2023/10/28 07:55:34;;;;;;;;;;;14.00;99.90;;;;;;5038346;28;19916;-72
2023/10/28 07:58:00;;;;;;;;;;;13.90;99.90;;;;;;5038952;28;19970;-73
2023/10/28 08:00:26;;;;;;;;;;;13.90;99.90;;;;;;5034048;28;20336;-71
2023/10/28 08:02:52;;;;;;;;;;;13.80;99.90;;;;;;5037424;28;19915;-72
2023/10/28 08:05:18;;;;;;;;;;;13.80;99.90;;;;;;5035510;28;19913;-72
2023/10/28 08:07:46;;;;;;;;;;;13.80;99.90;;;;;;5038911;28;19920;-72
2023/10/28 08:10:12;;;;;;;;;;;13.90;99.90;;;;;;5038636;28;19920;-72
2023/10/28 08:12:39;;;;;;;;;;;13.90;99.90;;;;;;5037863;28;19924;-73
2023/10/28 08:15:09;;;;;;;;;;;13.90;99.90;;;;;;5039247;28;19913;-72
2023/10/28 08:17:35;;;;;;;;;;;14.00;99.90;;;;;;5039207;28;19997;-72
2023/10/28 08:20:01;;;;;;;;;;;14.00;99.90;;;;;;5040060;28;19992;-72
2023/10/28 08:22:27;;;;;;;;;;;14.00;99.90;;;;;;5040336;28;19909;-72
2023/10/28 08:24:53;;;;;;;;;;;14.00;99.90;;;;;;5040615;28;19916;-72
2023/10/28 08:27:19;;;;;;;;;;;14.10;99.90;;;;;;5036484;28;19919;-71
2023/10/28 08:29:46;;;;;;;;;;;14.20;99.90;;;;;;5038908;28;20338;-71
2023/10/28 08:32:11;;;;;;;;;;;14.30;99.90;;;;;;5037652;28;19912;-72
2023/10/28 08:34:38;;;;;;;;;;;14.30;99.90;;;;;;5036686;28;20284;-71
2023/10/28 08:37:04;;;;;;;;;;;14.30;99.90;;;;;;5038411;28;19916;-71
2023/10/28 08:39:31;;;;;;;;;;;14.30;99.90;;;;;;5036679;28;19912;-72
2023/10/28 08:42:04;;;;;;;;;;;14.40;99.90;;;;;;5036445;28;19963;-72
2023/10/28 08:44:32;;;;;;;;;;;14.40;99.90;;;;;;5035995;28;20406;-73
2023/10/28 08:46:59;;;;;;;;;;;14.40;99.90;;;;;;5043193;28;20376;-73
2023/10/28 08:49:25;;;;;;;;;;;14.50;99.90;;;;;;5035121;28;19913;-72
2023/10/28 08:51:53;;;;;;;;;;;14.60;99.90;;;;;;5040186;28;19943;-72
2023/10/28 08:54:19;;;;;;;;;;;14.70;99.90;;;;;;5032855;28;19943;-71
2023/10/28 08:56:46;;;;;;;;;;;14.70;99.90;;;;;;5037825;28;19932;-72
2023/10/28 08:59:12;;;;;;;;;;;14.80;99.90;;;;;;5033543;28;20399;-72
2023/10/28 09:01:37;;;;;;;;;;;14.90;99.90;;;;;;5041021;28;19919;-73
2023/10/28 09:04:06;;;;;;;;;;;14.90;99.90;;;;;;5036968;28;19913;-71
2023/10/28 09:06:32;;;;;;;;;;;15.00;99.90;;;;;;5036117;28;20003;-72
2023/10/28 09:08:58;;;;;;;;;;;15.00;99.90;;;;;;5040281;28;19921;-72
2023/10/28 09:11:25;;;;;;;;;;;14.90;99.90;;;;;;5039640;28;19992;-72
2023/10/28 09:13:50;;;;;;;;;;;14.90;99.90;;;;;;5037983;28;21252;-72
2023/10/28 09:16:16;;;;;;;;;;;14.90;99.90;;;;;;5041746;28;19912;-73
2023/10/28 09:18:42;;;;;;;;;;;14.80;99.90;;;;;;5037673;28;20360;-72
2023/10/28 09:21:09;;;;;;;;;;;14.80;99.90;;;;;;5039834;28;19931;-72
2023/10/28 09:23:35;;;;;;;;;;;14.80;99.90;;;;;;5041225;28;19963;-72
2023/10/28 09:26:01;;;;;;;;;;;14.70;99.90;;;;;;5041673;28;20276;-73
2023/10/28 09:28:27;;;;;;;;;;;14.70;99.90;;;;;;5041401;28;19912;-71
2023/10/28 09:30:53;;;;;;;;;;;14.80;99.90;;;;;;5042733;28;20009;-72
2023/10/28 09:33:19;;;;;;;;;;;14.90;99.90;;;;;;5039293;28;20734;-73
2023/10/28 09:35:46;;;;;;;;;;;15.00;99.90;;;;;;5042372;28;19920;-72
2023/10/28 09:38:11;;;;;;;;;;;15.10;99.90;;;;;;5040461;28;19966;-72
2023/10/28 09:40:37;;;;;;;;;;;15.30;99.90;;;;;;5040176;28;19909;-72
2023/10/28 09:43:04;;;;;;;;;;;15.40;99.90;;;;;;5040692;28;19999;-72
2023/10/28 09:45:30;;;;;;;;;;;15.50;99.90;;;;;;5039323;28;20816;-72
2023/10/28 09:47:57;;;;;;;;;;;15.50;99.90;;;;;;5041192;28;20015;-71
2023/10/28 09:50:23;;;;;;;;;;;15.60;99.90;;;;;;5038035;28;20340;-72
2023/10/28 09:52:52;;;;;;;;;;;15.60;99.90;;;;;;5075239;28;19913;-72
2023/10/28 09:55:21;;;;;;;;;;;15.70;99.90;;;;;;5037673;28;19947;-73
2023/10/28 09:57:47;;;;;;;;;;;15.90;99.90;;;;;;5042002;28;19939;-72
2023/10/28 10:00:17;;;;;;;;;;;16.20;99.90;;;;;;5038150;28;19912;-72
2023/10/28 10:03:03;;;;;;;;;;;16.50;99.90;;;;;;5040152;28;19958;-72
2023/10/28 10:05:32;;;;;;;;;;;16.60;99.90;;;;;;5034963;28;20106;-72
2023/10/28 10:07:59;;;;;;;;;;;17.80;99.90;;;;;;5039289;28;19912;-72
2023/10/28 10:10:25;;;;;;;;;;;19.70;97.70;;;;;;5042283;28;20097;-72
2023/10/28 10:13:00;;;;;;;;;;;22.70;94.60;;;;;;5041227;28;19917;-72
2023/10/28 10:15:29;;;;;;;;;;;26.40;85.90;;;;;;5039363;28;19920;-72
2023/10/28 10:18:21;;;;;;;;;;;29.90;72.80;;;;;;5040948;28;20384;-73
2023/10/28 10:20:47;;;;;;;;;;;30.70;66.40;;;;;;5039749;28;19917;-72
2023/10/28 10:23:14;;;;;;;;;;;32.60;62.20;;;;;;5073325;28;19919;-72
2023/10/28 10:25:45;;;;;;;;;;;32.50;57.50;;;;;;5038504;28;20056;-72
2023/10/28 10:28:14;;;;;;;;;;;33.40;56.10;;;;;;5034571;28;19913;-73
2023/10/28 10:30:40;;;;;;;;;;;34.50;54.80;;;;;;5041562;28;20015;-72
2023/10/28 10:33:06;;;;;;;;;;;34.10;54.40;;;;;;5039670;28;20431;-73
2023/10/28 10:35:32;;;;;;;;;;;35.20;52.00;;;;;;5040028;28;20007;-73
2023/10/28 10:38:09;;;;;;;;;;;36.50;50.60;;;;;;5037523;28;19917;-73
2023/10/28 10:40:50;;;;;;;;;;;37.10;49.00;;;;;;5037248;28;20472;-66
2023/10/28 10:43:20;;;;;;;;;;;36.10;50.10;;;;;;5036373;28;19959;-66
2023/10/28 10:45:46;;;;;;;;;;;35.90;48.10;;;;;;5032174;28;19913;-65
2023/10/28 10:48:12;;;;;;;;;;;33.20;49.20;;;;;;5036457;28;20387;-65
2023/10/28 10:50:38;;;;;;;;;;;30.00;50.70;;;;;;5036662;28;19913;-66
2023/10/28 10:53:04;;;;;;;;;;;27.60;53.30;;;;;;5035133;28;19916;-66
2023/10/28 10:55:30;;;;;;;;;;;25.90;55.00;;;;;;5038771;28;19913;-65
2023/10/28 10:57:56;;;;;;;;;;;24.60;58.20;;;;;;5034145;28;20368;-65
2023/10/28 11:00:22;;;;;;;;;;;23.80;58.60;;;;;;5036949;28;19909;-64
2023/10/28 11:02:48;;;;;;;;;;;23.10;60.70;;;;;;5032357;28;19913;-65
2023/10/28 11:05:16;;;;;;;;;;;22.60;61.80;;;;;;5036809;28;19956;-65
2023/10/28 11:07:43;;;;;;;;;;;22.30;62.40;;;;;;5037585;28;20391;-64
2023/10/28 11:10:09;;;;;;;;;;;22.20;63.30;;;;;;5036271;28;20371;-66
2023/10/28 11:12:35;;;;;;;;;;;21.90;63.40;;;;;;5034782;28;19912;-65
2023/10/28 11:15:03;;;;;;;;;;;21.60;64.10;;;;;;5035205;28;20421;-65
2023/10/28 11:17:29;;;;;;;;;;;21.50;64.60;;;;;;5033380;28;20375;-65
2023/10/28 11:19:56;;;;;;;;;;;21.40;64.70;;;;;;5036200;28;19909;-66
2023/10/28 11:22:22;;;;;;;;;;;21.30;65.10;;;;;;5031140;28;19913;-65
2023/10/28 11:24:53;;;;;;;;;;;21.20;65.90;;;;;;5036949;28;20730;-65
2023/10/28 11:27:19;;;;;;;;;;;21.10;66.40;;;;;;5032598;28;19978;-65
2023/10/28 11:29:46;;;;;;;;;;;21.10;65.80;;;;;;5035252;28;19917;-65
2023/10/28 11:32:12;;;;;;;;;;;21.10;65.10;;;;;;5031579;28;19952;-67
2023/10/28 11:34:39;;;;;;;;;;;20.90;66.30;;;;;;5036260;28;19951;-65
2023/10/28 11:37:06;;;;;;;;;;;21.00;66.20;;;;;;5036449;28;19912;-65
2023/10/28 11:39:34;;;;;;;;;;;20.80;65.90;;;;;;5030758;28;20020;-65
2023/10/28 11:42:13;;;;;;;;;;;20.70;66.70;;;;;;5036867;28;19987;-66
2023/10/28 11:44:39;;;;;;;;;;;20.60;66.60;;;;;;5036976;28;19913;-65
2023/10/28 11:47:05;;;;;;;;;;;20.50;67.10;;;;;;5036849;28;20375;-65
2023/10/28 11:49:31;;;;;;;;;;;20.40;66.20;;;;;;5036286;28;19909;-65
2023/10/28 11:51:56;;;;;;;;;;;20.10;66.90;;;;;;5036792;28;20054;-65
2023/10/28 11:54:22;;;;;;;;;;;19.90;68.60;;;;;;5037560;28;19913;-66
2023/10/28 11:56:48;;;;;;;;;;;19.90;67.40;;;;;;5035581;28;19915;-65
2023/10/28 11:59:13;;;;;;;;;;;19.90;68.50;;;;;;5031537;28;19981;-65
2023/10/28 12:01:39;;;;;;;;;;;20.10;68.80;;;;;;5035711;28;19912;-65
2023/10/28 12:04:07;;;;;;;;;;;20.00;68.80;;;;;;5037347;28;19984;-65
2023/10/28 12:06:33;;;;;;;;;;;20.00;68.40;;;;;;5036169;28;19909;-65
2023/10/28 12:08:59;;;;;;;;;;;20.10;69.20;;;;;;5032021;28;19920;-66
2023/10/28 12:11:25;;;;;;;;;;;20.20;68.60;;;;;;5035668;28;19966;-65
2023/10/28 12:13:51;;;;;;;;;;;20.20;68.70;;;;;;5031263;28;19968;-65
2023/10/28 12:16:16;;;;;;;;;;;20.20;68.30;;;;;;5036562;28;20356;-66
2023/10/28 12:18:42;;;;;;;;;;;20.00;68.80;;;;;;5031646;28;20356;-65
2023/10/28 12:21:09;;;;;;;;;;;19.90;69.00;;;;;;5039402;28;19908;-65
2023/10/28 12:23:35;;;;;;;;;;;19.90;70.30;;;;;;5038028;28;19909;-65
2023/10/28 12:26:01;;;;;;;;;;;19.90;69.50;;;;;;5039893;28;20517;-65
2023/10/28 12:28:26;;;;;;;;;;;19.90;70.40;;;;;;5036528;28;19912;-65
2023/10/28 12:30:53;;;;;;;;;;;19.90;69.30;;;;;;5036898;28;19916;-66
2023/10/28 12:33:18;;;;;;;;;;;19.90;69.50;;;;;;5040777;28;19940;-65
2023/10/28 12:35:44;;;;;;;;;;;19.80;70.20;;;;;;5030754;28;19967;-65
2023/10/28 12:38:10;;;;;;;;;;;19.70;70.70;;;;;;5035563;28;20424;-65
2023/10/28 12:40:36;;;;;;;;;;;19.70;69.50;;;;;;5035211;28;20370;-65
2023/10/28 12:43:01;;;;;;;;;;;19.60;70.40;;;;;;5033381;28;19913;-65
2023/10/28 12:45:27;;;;;;;;;;;19.40;71.00;;;;;;5040237;28;20225;-65
2023/10/28 12:47:52;;;;;;;;;;;19.50;70.60;;;;;;5034339;28;20323;-65
2023/10/28 12:50:19;;;;;;;;;;;19.60;70.70;;;;;;5039606;28;19913;-65
2023/10/28 12:52:44;;;;;;;;;;;19.60;71.10;;;;;;5033444;28;20632;-65
2023/10/28 12:55:10;;;;;;;;;;;19.50;70.40;;;;;;5039031;28;19917;-66
2023/10/28 12:57:35;;;;;;;;;;;19.50;70.80;;;;;;5040276;28;19982;-66
2023/10/28 13:00:01;;;;;;;;;;;19.40;70.90;;;;;;5034677;28;19913;-65
2023/10/28 13:02:26;;;;;;;;;;;19.40;72.10;;;;;;5045506;28;20410;-65
2023/10/28 13:04:52;;;;;;;;;;;19.40;70.80;;;;;;5039143;28;20505;-64
2023/10/28 13:07:20;;;;;;;;;;;19.20;71.60;;;;;;5038796;28;19919;-66
2023/10/28 13:09:45;;;;;;;;;;;19.10;71.80;;;;;;5033811;28;20015;-65
2023/10/28 13:12:11;;;;;;;;;;;19.10;72.20;;;;;;5038870;28;20016;-67
2023/10/28 13:14:36;;;;;;;;;;;19.10;72.30;;;;;;5039652;28;20507;-65
2023/10/28 13:17:02;;;;;;;;;;;19.00;73.10;;;;;;5039149;28;20004;-66
2023/10/28 13:19:29;;;;;;;;;;;19.00;74.00;;;;;;5034587;28;20348;-67
2023/10/28 13:21:54;;;;;;;;;;;19.00;73.80;;;;;;5038944;28;19913;-66
2023/10/28 13:24:20;;;;;;;;;;;19.00;73.10;;;;;;5034446;28;19927;-65
2023/10/28 13:26:47;;;;;;;;;;;19.00;72.60;;;;;;5038318;28;20311;-66
2023/10/28 13:29:13;;;;;;;;;;;19.00;73.40;;;;;;5038559;28;19912;-65
2023/10/28 13:31:39;;;;;;;;;;;18.90;72.50;;;;;;5038157;28;19917;-67
2023/10/28 13:34:05;;;;;;;;;;;18.90;73.30;;;;;;5035301;28;19912;-65
2023/10/28 13:36:31;;;;;;;;;;;18.80;74.70;;;;;;5038594;28;19925;-66
2023/10/28 13:38:57;;;;;;;;;;;18.80;74.20;;;;;;5031241;28;20276;-65
2023/10/28 13:41:22;;;;;;;;;;;18.80;74.80;;;;;;5054507;28;19909;-66
2023/10/28 13:43:49;;;;;;;;;;;18.80;75.10;;;;;;5034892;28;19963;-65
2023/10/28 13:46:16;;;;;;;;;;;18.70;74.90;;;;;;5038318;28;19917;-65
2023/10/28 13:48:41;;;;;;;;;;;18.60;74.50;;;;;;5039053;28;19943;-67
2023/10/28 13:51:07;;;;;;;;;;;18.60;75.80;;;;;;5042070;28;19908;-65
2023/10/28 13:53:32;;;;;;;;;;;18.50;75.40;;;;;;5032648;28;19912;-64
2023/10/28 13:55:58;;;;;;;;;;;18.50;75.30;;;;;;5038587;28;20015;-66
2023/10/28 13:58:24;;;;;;;;;;;18.50;75.30;;;;;;5038924;28;19928;-66
2023/10/28 14:00:50;;;;;;;;;;;18.40;75.40;;;;;;5037875;28;19939;-65
2023/10/28 14:03:17;;;;;;;;;;;18.30;74.70;;;;;;5037570;28;20332;-65
2023/10/28 14:05:43;;;;;;;;;;;18.30;75.80;;;;;;5033357;28;19913;-65
2023/10/28 14:08:10;;;;;;;;;;;18.20;76.00;;;;;;5038230;28;20304;-65
2023/10/28 14:10:36;;;;;;;;;;;18.10;76.60;;;;;;5036843;28;19912;-66
2023/10/28 14:13:01;;;;;;;;;;;18.10;75.80;;;;;;5038034;28;19913;-65
2023/10/28 14:15:27;;;;;;;;;;;18.00;76.30;;;;;;5038297;28;20016;-65